sensor_id;sensor_type;location;lat;lon;timestamp;P1;durP1;ratioP1;P2;durP2;ratioP2
22435;SDS011;11385;50.822;4.324;2023-02-01T00:02:05;31.75;;;14.60;;
22435;SDS011;11385;50.822;4.324;2023-02-01T00:04:32;31.12;;;14.98;;
22435;SDS011;11385;50.822;4.324;2023-02-01T00:06:58;31.73;;;16.35;;
22435;SDS011;11385;50.822;4.324;2023-02-01T00:09:26;25.62;;;14.43;;
22435;SDS011;11385;50.822;4.324;2023-02-01T00:11:53;31.93;;;15.65;;
22435;SDS011;11385;50.822;4.324;2023-02-01T00:14:20;34.55;;;16.35;;
22435;SDS011;11385;50.822;4.324;2023-02-01T00:16:47;28.30;;;15.10;;
22435;SDS011;11385;50.822;4.324;2023-02-01T00:19:14;64.77;;;34.40;;
22435;SDS011;11385;50.822;4.324;2023-02-01T00:21:41;40.20;;;17.30;;
22435;SDS011;11385;50.822;4.324;2023-02-01T00:24:09;34.05;;;16.17;;
22435;SDS011;11385;50.822;4.324;2023-02-01T00:26:37;33.83;;;15.72;;
22435;SDS011;11385;50.822;4.324;2023-02-01T00:29:09;31.97;;;15.72;;
22435;SDS011;11385;50.822;4.324;2023-02-01T00:31:37;34.98;;;15.08;;
22435;SDS011;11385;50.822;4.324;2023-02-01T00:34:04;29.77;;;14.68;;
22435;SDS011;11385;50.822;4.324;2023-02-01T00:36:31;34.85;;;14.60;;
22435;SDS011;11385;50.822;4.324;2023-02-01T00:38:58;27.17;;;14.10;;
22435;SDS011;11385;50.822;4.324;2023-02-01T00:41:25;30.80;;;15.18;;
22435;SDS011;11385;50.822;4.324;2023-02-01T00:43:52;31.87;;;14.58;;
22435;SDS011;11385;50.822;4.324;2023-02-01T00:46:19;30.17;;;14.15;;
22435;SDS011;11385;50.822;4.324;2023-02-01T00:48:47;30.90;;;13.88;;
22435;SDS011;11385;50.822;4.324;2023-02-01T00:51:15;32.03;;;14.05;;
22435;SDS011;11385;50.822;4.324;2023-02-01T00:53:43;23.42;;;12.30;;
22435;SDS011;11385;50.822;4.324;2023-02-01T00:56:11;29.45;;;12.68;;
22435;SDS011;11385;50.822;4.324;2023-02-01T00:58:38;23.65;;;11.40;;
22435;SDS011;11385;50.822;4.324;2023-02-01T01:01:06;26.62;;;10.68;;
22435;SDS011;11385;50.822;4.324;2023-02-01T01:03:35;26.05;;;10.05;;
22435;SDS011;11385;50.822;4.324;2023-02-01T01:06:05;24.60;;;11.00;;
22435;SDS011;11385;50.822;4.324;2023-02-01T01:08:33;25.17;;;9.33;;
22435;SDS011;11385;50.822;4.324;2023-02-01T01:11:04;30.15;;;9.43;;
22435;SDS011;11385;50.822;4.324;2023-02-01T01:13:36;23.32;;;8.73;;
22435;SDS011;11385;50.822;4.324;2023-02-01T01:16:03;25.48;;;8.73;;
22435;SDS011;11385;50.822;4.324;2023-02-01T01:18:31;25.68;;;8.58;;
22435;SDS011;11385;50.822;4.324;2023-02-01T01:20:58;24.50;;;7.30;;
22435;SDS011;11385;50.822;4.324;2023-02-01T01:23:26;21.05;;;6.83;;
22435;SDS011;11385;50.822;4.324;2023-02-01T01:25:53;20.27;;;6.00;;
22435;SDS011;11385;50.822;4.324;2023-02-01T01:28:20;20.23;;;6.85;;
22435;SDS011;11385;50.822;4.324;2023-02-01T01:30:46;24.30;;;5.97;;
22435;SDS011;11385;50.822;4.324;2023-02-01T01:33:13;20.85;;;5.10;;
22435;SDS011;11385;50.822;4.324;2023-02-01T01:35:40;21.37;;;5.62;;
22435;SDS011;11385;50.822;4.324;2023-02-01T01:38:06;22.60;;;4.03;;
22435;SDS011;11385;50.822;4.324;2023-02-01T01:40:34;18.00;;;4.60;;
22435;SDS011;11385;50.822;4.324;2023-02-01T01:43:00;20.20;;;4.85;;
22435;SDS011;11385;50.822;4.324;2023-02-01T01:45:28;20.30;;;4.92;;
22435;SDS011;11385;50.822;4.324;2023-02-01T01:47:58;23.05;;;5.15;;
22435;SDS011;11385;50.822;4.324;2023-02-01T01:50:27;17.60;;;3.90;;
22435;SDS011;11385;50.822;4.324;2023-02-01T01:52:57;18.75;;;4.72;;
22435;SDS011;11385;50.822;4.324;2023-02-01T01:55:27;17.15;;;4.12;;
22435;SDS011;11385;50.822;4.324;2023-02-01T01:58:00;19.43;;;3.97;;
22435;SDS011;11385;50.822;4.324;2023-02-01T02:00:28;18.00;;;5.00;;
22435;SDS011;11385;50.822;4.324;2023-02-01T02:02:58;18.85;;;4.03;;
22435;SDS011;11385;50.822;4.324;2023-02-01T02:05:29;20.20;;;3.92;;
22435;SDS011;11385;50.822;4.324;2023-02-01T02:07:57;22.22;;;4.28;;
22435;SDS011;11385;50.822;4.324;2023-02-01T02:10:26;19.95;;;4.83;;
22435;SDS011;11385;50.822;4.324;2023-02-01T02:12:59;20.23;;;4.47;;
22435;SDS011;11385;50.822;4.324;2023-02-01T02:15:26;15.10;;;3.83;;
22435;SDS011;11385;50.822;4.324;2023-02-01T02:17:57;18.17;;;3.52;;
22435;SDS011;11385;50.822;4.324;2023-02-01T02:20:33;20.90;;;4.15;;
22435;SDS011;11385;50.822;4.324;2023-02-01T02:23:12;17.52;;;3.92;;
22435;SDS011;11385;50.822;4.324;2023-02-01T02:26:01;22.15;;;4.33;;
22435;SDS011;11385;50.822;4.324;2023-02-01T02:28:41;12.90;;;3.30;;
22435;SDS011;11385;50.822;4.324;2023-02-01T02:31:18;17.65;;;4.70;;
22435;SDS011;11385;50.822;4.324;2023-02-01T02:33:47;15.32;;;3.90;;
22435;SDS011;11385;50.822;4.324;2023-02-01T02:36:19;18.65;;;3.95;;
22435;SDS011;11385;50.822;4.324;2023-02-01T02:38:53;18.95;;;3.67;;
22435;SDS011;11385;50.822;4.324;2023-02-01T02:41:31;16.67;;;4.12;;
22435;SDS011;11385;50.822;4.324;2023-02-01T02:44:11;25.20;;;5.00;;
22435;SDS011;11385;50.822;4.324;2023-02-01T02:46:46;20.00;;;4.20;;
22435;SDS011;11385;50.822;4.324;2023-02-01T02:49:23;19.15;;;3.65;;
22435;SDS011;11385;50.822;4.324;2023-02-01T02:51:58;17.30;;;4.35;;
22435;SDS011;11385;50.822;4.324;2023-02-01T02:54:33;17.35;;;4.47;;
22435;SDS011;11385;50.822;4.324;2023-02-01T02:57:09;20.25;;;3.92;;
22435;SDS011;11385;50.822;4.324;2023-02-01T02:59:44;19.27;;;4.10;;
22435;SDS011;11385;50.822;4.324;2023-02-01T03:02:18;18.62;;;3.92;;
22435;SDS011;11385;50.822;4.324;2023-02-01T03:04:53;21.37;;;3.92;;
22435;SDS011;11385;50.822;4.324;2023-02-01T03:10:03;16.85;;;3.50;;
22435;SDS011;11385;50.822;4.324;2023-02-01T03:12:32;21.73;;;4.27;;
22435;SDS011;11385;50.822;4.324;2023-02-01T03:15:08;17.90;;;3.45;;
22435;SDS011;11385;50.822;4.324;2023-02-01T03:17:39;20.20;;;3.75;;
22435;SDS011;11385;50.822;4.324;2023-02-01T03:20:08;19.48;;;3.17;;
22435;SDS011;11385;50.822;4.324;2023-02-01T03:22:39;16.67;;;3.98;;
22435;SDS011;11385;50.822;4.324;2023-02-01T03:25:11;22.15;;;3.92;;
22435;SDS011;11385;50.822;4.324;2023-02-01T03:27:41;18.95;;;3.47;;
22435;SDS011;11385;50.822;4.324;2023-02-01T03:30:13;20.05;;;3.92;;
22435;SDS011;11385;50.822;4.324;2023-02-01T03:32:45;15.13;;;3.10;;
22435;SDS011;11385;50.822;4.324;2023-02-01T03:35:20;21.10;;;3.60;;
22435;SDS011;11385;50.822;4.324;2023-02-01T03:40:18;22.17;;;4.37;;
22435;SDS011;11385;50.822;4.324;2023-02-01T03:42:48;20.27;;;4.12;;
22435;SDS011;11385;50.822;4.324;2023-02-01T03:47:46;15.00;;;3.45;;
22435;SDS011;11385;50.822;4.324;2023-02-01T03:50:17;16.23;;;3.37;;
22435;SDS011;11385;50.822;4.324;2023-02-01T03:52:51;19.55;;;3.90;;
22435;SDS011;11385;50.822;4.324;2023-02-01T03:55:21;15.53;;;3.37;;
22435;SDS011;11385;50.822;4.324;2023-02-01T03:57:52;18.25;;;4.12;;
22435;SDS011;11385;50.822;4.324;2023-02-01T04:00:22;23.55;;;3.55;;
22435;SDS011;11385;50.822;4.324;2023-02-01T04:02:50;13.93;;;4.08;;
22435;SDS011;11385;50.822;4.324;2023-02-01T04:05:18;23.25;;;4.00;;
22435;SDS011;11385;50.822;4.324;2023-02-01T04:07:45;18.07;;;3.45;;
22435;SDS011;11385;50.822;4.324;2023-02-01T04:10:11;18.65;;;3.80;;
22435;SDS011;11385;50.822;4.324;2023-02-01T04:12:39;20.05;;;3.77;;
22435;SDS011;11385;50.822;4.324;2023-02-01T04:15:06;19.37;;;3.65;;
22435;SDS011;11385;50.822;4.324;2023-02-01T04:17:33;18.52;;;4.40;;
22435;SDS011;11385;50.822;4.324;2023-02-01T04:20:00;16.30;;;3.55;;
22435;SDS011;11385;50.822;4.324;2023-02-01T04:22:26;21.75;;;3.75;;
22435;SDS011;11385;50.822;4.324;2023-02-01T04:24:54;22.95;;;4.72;;
22435;SDS011;11385;50.822;4.324;2023-02-01T04:27:20;23.57;;;4.85;;
22435;SDS011;11385;50.822;4.324;2023-02-01T04:29:47;17.23;;;4.55;;
22435;SDS011;11385;50.822;4.324;2023-02-01T04:32:15;25.45;;;4.72;;
22435;SDS011;11385;50.822;4.324;2023-02-01T04:34:42;16.25;;;3.45;;
22435;SDS011;11385;50.822;4.324;2023-02-01T04:37:09;21.60;;;3.87;;
22435;SDS011;11385;50.822;4.324;2023-02-01T04:39:35;18.73;;;3.95;;
22435;SDS011;11385;50.822;4.324;2023-02-01T04:42:02;21.57;;;4.05;;
22435;SDS011;11385;50.822;4.324;2023-02-01T04:44:29;14.40;;;3.85;;
22435;SDS011;11385;50.822;4.324;2023-02-01T04:46:57;21.42;;;4.33;;
22435;SDS011;11385;50.822;4.324;2023-02-01T04:49:25;18.75;;;4.50;;
22435;SDS011;11385;50.822;4.324;2023-02-01T04:51:52;23.30;;;3.90;;
22435;SDS011;11385;50.822;4.324;2023-02-01T04:54:18;16.77;;;3.77;;
22435;SDS011;11385;50.822;4.324;2023-02-01T04:56:45;16.95;;;3.75;;
22435;SDS011;11385;50.822;4.324;2023-02-01T04:59:12;15.60;;;3.15;;
22435;SDS011;11385;50.822;4.324;2023-02-01T05:01:39;25.20;;;4.95;;
22435;SDS011;11385;50.822;4.324;2023-02-01T05:04:05;21.57;;;4.28;;
22435;SDS011;11385;50.822;4.324;2023-02-01T05:06:32;19.37;;;4.00;;
22435;SDS011;11385;50.822;4.324;2023-02-01T05:08:58;23.12;;;3.67;;
22435;SDS011;11385;50.822;4.324;2023-02-01T05:11:25;17.82;;;3.67;;
22435;SDS011;11385;50.822;4.324;2023-02-01T05:13:58;14.85;;;3.83;;
22435;SDS011;11385;50.822;4.324;2023-02-01T05:16:25;22.35;;;4.30;;
22435;SDS011;11385;50.822;4.324;2023-02-01T05:18:53;21.62;;;3.95;;
22435;SDS011;11385;50.822;4.324;2023-02-01T05:21:19;20.62;;;3.40;;
22435;SDS011;11385;50.822;4.324;2023-02-01T05:23:46;16.48;;;4.03;;
22435;SDS011;11385;50.822;4.324;2023-02-01T05:26:18;19.77;;;3.80;;
22435;SDS011;11385;50.822;4.324;2023-02-01T05:28:45;17.37;;;3.58;;
22435;SDS011;11385;50.822;4.324;2023-02-01T05:31:12;21.65;;;4.35;;
22435;SDS011;11385;50.822;4.324;2023-02-01T05:33:38;21.93;;;4.25;;
22435;SDS011;11385;50.822;4.324;2023-02-01T05:36:05;24.87;;;4.83;;
22435;SDS011;11385;50.822;4.324;2023-02-01T05:38:32;19.62;;;4.22;;
22435;SDS011;11385;50.822;4.324;2023-02-01T05:40:58;18.35;;;4.53;;
22435;SDS011;11385;50.822;4.324;2023-02-01T05:43:25;18.45;;;4.75;;
22435;SDS011;11385;50.822;4.324;2023-02-01T05:45:52;30.17;;;6.30;;
22435;SDS011;11385;50.822;4.324;2023-02-01T05:48:18;20.27;;;4.62;;
22435;SDS011;11385;50.822;4.324;2023-02-01T05:50:45;20.62;;;4.45;;
22435;SDS011;11385;50.822;4.324;2023-02-01T05:53:12;22.62;;;5.20;;
22435;SDS011;11385;50.822;4.324;2023-02-01T05:55:39;23.98;;;5.20;;
22435;SDS011;11385;50.822;4.324;2023-02-01T05:58:05;16.67;;;4.17;;
22435;SDS011;11385;50.822;4.324;2023-02-01T06:00:32;20.15;;;4.40;;
22435;SDS011;11385;50.822;4.324;2023-02-01T06:02:59;21.48;;;3.85;;
22435;SDS011;11385;50.822;4.324;2023-02-01T06:05:27;16.75;;;3.77;;
22435;SDS011;11385;50.822;4.324;2023-02-01T06:07:53;19.05;;;4.37;;
22435;SDS011;11385;50.822;4.324;2023-02-01T06:10:20;19.92;;;3.95;;
22435;SDS011;11385;50.822;4.324;2023-02-01T06:12:46;19.85;;;4.33;;
22435;SDS011;11385;50.822;4.324;2023-02-01T06:15:14;18.35;;;3.45;;
22435;SDS011;11385;50.822;4.324;2023-02-01T06:17:43;19.60;;;3.98;;
22435;SDS011;11385;50.822;4.324;2023-02-01T06:20:11;20.32;;;4.55;;
22435;SDS011;11385;50.822;4.324;2023-02-01T06:22:40;21.85;;;3.80;;
22435;SDS011;11385;50.822;4.324;2023-02-01T06:25:07;16.60;;;4.22;;
22435;SDS011;11385;50.822;4.324;2023-02-01T06:27:35;17.52;;;3.30;;
22435;SDS011;11385;50.822;4.324;2023-02-01T06:30:02;19.80;;;3.65;;
22435;SDS011;11385;50.822;4.324;2023-02-01T06:32:30;22.85;;;3.95;;
22435;SDS011;11385;50.822;4.324;2023-02-01T06:34:56;18.92;;;3.83;;
22435;SDS011;11385;50.822;4.324;2023-02-01T06:37:23;20.77;;;4.00;;
22435;SDS011;11385;50.822;4.324;2023-02-01T06:39:53;15.38;;;3.50;;
22435;SDS011;11385;50.822;4.324;2023-02-01T06:42:19;29.77;;;7.35;;
22435;SDS011;11385;50.822;4.324;2023-02-01T06:44:46;22.95;;;7.60;;
22435;SDS011;11385;50.822;4.324;2023-02-01T06:47:13;58.80;;;31.95;;
22435;SDS011;11385;50.822;4.324;2023-02-01T06:49:39;24.45;;;5.87;;
22435;SDS011;11385;50.822;4.324;2023-02-01T06:52:06;26.80;;;4.75;;
22435;SDS011;11385;50.822;4.324;2023-02-01T06:54:33;23.38;;;4.37;;
22435;SDS011;11385;50.822;4.324;2023-02-01T06:56:59;17.55;;;4.40;;
22435;SDS011;11385;50.822;4.324;2023-02-01T06:59:26;18.05;;;3.90;;
22435;SDS011;11385;50.822;4.324;2023-02-01T07:01:53;25.02;;;4.47;;
22435;SDS011;11385;50.822;4.324;2023-02-01T07:04:19;21.30;;;5.33;;
22435;SDS011;11385;50.822;4.324;2023-02-01T07:06:46;24.90;;;4.58;;
22435;SDS011;11385;50.822;4.324;2023-02-01T07:09:13;22.25;;;4.65;;
22435;SDS011;11385;50.822;4.324;2023-02-01T07:11:39;21.37;;;5.28;;
22435;SDS011;11385;50.822;4.324;2023-02-01T07:14:10;20.30;;;4.37;;
22435;SDS011;11385;50.822;4.324;2023-02-01T07:16:37;20.55;;;4.53;;
22435;SDS011;11385;50.822;4.324;2023-02-01T07:19:04;19.85;;;4.35;;
22435;SDS011;11385;50.822;4.324;2023-02-01T07:21:30;23.18;;;4.58;;
22435;SDS011;11385;50.822;4.324;2023-02-01T07:23:57;20.65;;;4.20;;
22435;SDS011;11385;50.822;4.324;2023-02-01T07:26:24;24.95;;;4.80;;
22435;SDS011;11385;50.822;4.324;2023-02-01T07:28:51;19.25;;;3.92;;
22435;SDS011;11385;50.822;4.324;2023-02-01T07:31:18;23.62;;;4.40;;
22435;SDS011;11385;50.822;4.324;2023-02-01T07:33:48;20.80;;;4.42;;
22435;SDS011;11385;50.822;4.324;2023-02-01T07:36:17;18.60;;;3.92;;
22435;SDS011;11385;50.822;4.324;2023-02-01T07:38:44;26.48;;;5.08;;
22435;SDS011;11385;50.822;4.324;2023-02-01T07:41:12;23.27;;;5.17;;
22435;SDS011;11385;50.822;4.324;2023-02-01T07:43:39;20.95;;;4.90;;
22435;SDS011;11385;50.822;4.324;2023-02-01T07:46:06;21.42;;;4.22;;
22435;SDS011;11385;50.822;4.324;2023-02-01T07:48:33;24.87;;;4.70;;
22435;SDS011;11385;50.822;4.324;2023-02-01T07:51:08;17.27;;;3.75;;
22435;SDS011;11385;50.822;4.324;2023-02-01T07:53:35;29.65;;;6.15;;
22435;SDS011;11385;50.822;4.324;2023-02-01T07:56:02;22.70;;;4.78;;
22435;SDS011;11385;50.822;4.324;2023-02-01T07:58:29;14.43;;;4.00;;
22435;SDS011;11385;50.822;4.324;2023-02-01T08:00:56;21.10;;;6.10;;
22435;SDS011;11385;50.822;4.324;2023-02-01T08:03:29;17.45;;;4.58;;
22435;SDS011;11385;50.822;4.324;2023-02-01T08:05:55;18.60;;;4.47;;
22435;SDS011;11385;50.822;4.324;2023-02-01T08:08:22;19.73;;;3.87;;
22435;SDS011;11385;50.822;4.324;2023-02-01T08:10:49;38.90;;;13.80;;
22435;SDS011;11385;50.822;4.324;2023-02-01T08:13:16;19.57;;;5.85;;
22435;SDS011;11385;50.822;4.324;2023-02-01T08:15:43;20.43;;;5.72;;
22435;SDS011;11385;50.822;4.324;2023-02-01T08:18:09;19.32;;;4.35;;
22435;SDS011;11385;50.822;4.324;2023-02-01T08:20:36;20.77;;;5.00;;
22435;SDS011;11385;50.822;4.324;2023-02-01T08:23:07;24.90;;;4.65;;
22435;SDS011;11385;50.822;4.324;2023-02-01T08:25:34;21.35;;;5.33;;
22435;SDS011;11385;50.822;4.324;2023-02-01T08:28:02;23.87;;;5.42;;
22435;SDS011;11385;50.822;4.324;2023-02-01T08:30:28;22.75;;;4.75;;
22435;SDS011;11385;50.822;4.324;2023-02-01T08:32:55;17.20;;;4.33;;
22435;SDS011;11385;50.822;4.324;2023-02-01T08:35:22;21.95;;;4.58;;
22435;SDS011;11385;50.822;4.324;2023-02-01T08:37:49;22.82;;;4.78;;
22435;SDS011;11385;50.822;4.324;2023-02-01T08:40:16;15.90;;;4.65;;
22435;SDS011;11385;50.822;4.324;2023-02-01T08:42:43;22.77;;;4.72;;
22435;SDS011;11385;50.822;4.324;2023-02-01T08:45:15;23.80;;;5.00;;
22435;SDS011;11385;50.822;4.324;2023-02-01T08:47:44;21.17;;;5.33;;
22435;SDS011;11385;50.822;4.324;2023-02-01T08:50:12;22.15;;;4.95;;
22435;SDS011;11385;50.822;4.324;2023-02-01T08:52:39;20.20;;;5.05;;
22435;SDS011;11385;50.822;4.324;2023-02-01T08:55:07;18.15;;;3.60;;
22435;SDS011;11385;50.822;4.324;2023-02-01T08:57:34;23.38;;;5.03;;
22435;SDS011;11385;50.822;4.324;2023-02-01T09:00:01;24.90;;;4.80;;
22435;SDS011;11385;50.822;4.324;2023-02-01T09:02:28;20.37;;;4.03;;
22435;SDS011;11385;50.822;4.324;2023-02-01T09:04:55;25.20;;;5.55;;
22435;SDS011;11385;50.822;4.324;2023-02-01T09:07:22;17.20;;;4.78;;
22435;SDS011;11385;50.822;4.324;2023-02-01T09:09:49;25.55;;;5.30;;
22435;SDS011;11385;50.822;4.324;2023-02-01T09:12:16;37.45;;;10.98;;
22435;SDS011;11385;50.822;4.324;2023-02-01T09:14:42;31.57;;;5.33;;
22435;SDS011;11385;50.822;4.324;2023-02-01T09:17:09;24.82;;;5.85;;
22435;SDS011;11385;50.822;4.324;2023-02-01T09:19:35;29.12;;;8.50;;
22435;SDS011;11385;50.822;4.324;2023-02-01T09:22:02;19.65;;;5.55;;
22435;SDS011;11385;50.822;4.324;2023-02-01T09:24:29;19.85;;;4.72;;
22435;SDS011;11385;50.822;4.324;2023-02-01T09:26:55;27.75;;;4.30;;
22435;SDS011;11385;50.822;4.324;2023-02-01T09:29:22;23.18;;;4.65;;
22435;SDS011;11385;50.822;4.324;2023-02-01T09:31:48;19.50;;;4.15;;
22435;SDS011;11385;50.822;4.324;2023-02-01T09:34:15;23.87;;;4.50;;
22435;SDS011;11385;50.822;4.324;2023-02-01T09:36:42;18.70;;;4.53;;
22435;SDS011;11385;50.822;4.324;2023-02-01T09:39:09;16.82;;;3.98;;
22435;SDS011;11385;50.822;4.324;2023-02-01T09:42:14;27.82;;;5.05;;
22435;SDS011;11385;50.822;4.324;2023-02-01T09:44:31;24.02;;;4.20;;
22435;SDS011;11385;50.822;4.324;2023-02-01T09:47:09;20.40;;;4.20;;
22435;SDS011;11385;50.822;4.324;2023-02-01T09:49:43;19.07;;;4.75;;
22435;SDS011;11385;50.822;4.324;2023-02-01T09:52:12;23.83;;;4.53;;
22435;SDS011;11385;50.822;4.324;2023-02-01T09:54:42;19.75;;;4.00;;
22435;SDS011;11385;50.822;4.324;2023-02-01T09:57:19;23.15;;;4.05;;
22435;SDS011;11385;50.822;4.324;2023-02-01T09:59:50;19.60;;;4.03;;
22435;SDS011;11385;50.822;4.324;2023-02-01T10:02:24;22.62;;;5.08;;
22435;SDS011;11385;50.822;4.324;2023-02-01T10:04:54;19.73;;;3.90;;
22435;SDS011;11385;50.822;4.324;2023-02-01T10:10:20;16.48;;;3.40;;
22435;SDS011;11385;50.822;4.324;2023-02-01T10:13:03;28.07;;;3.75;;
22435;SDS011;11385;50.822;4.324;2023-02-01T10:15:58;20.48;;;3.52;;
22435;SDS011;11385;50.822;4.324;2023-02-01T10:21:15;19.73;;;3.62;;
22435;SDS011;11385;50.822;4.324;2023-02-01T10:23:46;15.90;;;3.50;;
22435;SDS011;11385;50.822;4.324;2023-02-01T10:26:18;26.10;;;6.72;;
22435;SDS011;11385;50.822;4.324;2023-02-01T10:28:50;20.50;;;3.50;;
22435;SDS011;11385;50.822;4.324;2023-02-01T10:31:20;22.13;;;3.67;;
22435;SDS011;11385;50.822;4.324;2023-02-01T10:33:52;18.17;;;3.33;;
22435;SDS011;11385;50.822;4.324;2023-02-01T10:36:29;18.90;;;2.90;;
22435;SDS011;11385;50.822;4.324;2023-02-01T10:38:58;16.55;;;3.50;;
22435;SDS011;11385;50.822;4.324;2023-02-01T10:41:30;15.80;;;3.02;;
22435;SDS011;11385;50.822;4.324;2023-02-01T10:43:58;16.73;;;2.87;;
22435;SDS011;11385;50.822;4.324;2023-02-01T10:46:29;14.53;;;3.23;;
22435;SDS011;11385;50.822;4.324;2023-02-01T10:48:57;12.03;;;2.60;;
22435;SDS011;11385;50.822;4.324;2023-02-01T10:51:42;16.77;;;3.10;;
22435;SDS011;11385;50.822;4.324;2023-02-01T10:54:17;19.48;;;3.65;;
22435;SDS011;11385;50.822;4.324;2023-02-01T10:56:46;14.58;;;3.02;;
22435;SDS011;11385;50.822;4.324;2023-02-01T10:59:16;15.30;;;3.35;;
22435;SDS011;11385;50.822;4.324;2023-02-01T11:01:45;18.20;;;3.87;;
22435;SDS011;11385;50.822;4.324;2023-02-01T11:04:14;12.00;;;2.60;;
22435;SDS011;11385;50.822;4.324;2023-02-01T11:06:51;14.28;;;3.02;;
22435;SDS011;11385;50.822;4.324;2023-02-01T11:09:21;14.20;;;2.83;;
22435;SDS011;11385;50.822;4.324;2023-02-01T11:14:32;11.33;;;2.58;;
22435;SDS011;11385;50.822;4.324;2023-02-01T11:17:20;15.83;;;3.12;;
22435;SDS011;11385;50.822;4.324;2023-02-01T11:22:24;16.55;;;3.20;;
22435;SDS011;11385;50.822;4.324;2023-02-01T11:24:52;21.95;;;3.72;;
22435;SDS011;11385;50.822;4.324;2023-02-01T11:27:20;16.73;;;4.78;;
22435;SDS011;11385;50.822;4.324;2023-02-01T11:29:49;12.13;;;2.75;;
22435;SDS011;11385;50.822;4.324;2023-02-01T11:32:19;14.63;;;3.08;;
22435;SDS011;11385;50.822;4.324;2023-02-01T11:34:52;20.27;;;3.35;;
22435;SDS011;11385;50.822;4.324;2023-02-01T11:37:23;20.45;;;4.37;;
22435;SDS011;11385;50.822;4.324;2023-02-01T11:40:22;8.23;;;1.75;;
22435;SDS011;11385;50.822;4.324;2023-02-01T11:42:39;10.10;;;2.60;;
22435;SDS011;11385;50.822;4.324;2023-02-01T11:45:16;13.60;;;2.70;;
22435;SDS011;11385;50.822;4.324;2023-02-01T11:47:51;11.90;;;2.45;;
22435;SDS011;11385;50.822;4.324;2023-02-01T11:50:21;17.48;;;3.00;;
22435;SDS011;11385;50.822;4.324;2023-02-01T11:53:01;11.15;;;2.60;;
22435;SDS011;11385;50.822;4.324;2023-02-01T11:55:42;12.07;;;2.20;;
22435;SDS011;11385;50.822;4.324;2023-02-01T11:58:33;15.70;;;3.85;;
22435;SDS011;11385;50.822;4.324;2023-02-01T12:03:35;10.65;;;2.08;;
22435;SDS011;11385;50.822;4.324;2023-02-01T12:06:08;12.33;;;2.02;;
22435;SDS011;11385;50.822;4.324;2023-02-01T12:08:50;12.15;;;2.27;;
22435;SDS011;11385;50.822;4.324;2023-02-01T12:11:22;11.12;;;2.22;;
22435;SDS011;11385;50.822;4.324;2023-02-01T12:16:36;12.15;;;3.25;;
22435;SDS011;11385;50.822;4.324;2023-02-01T12:19:11;10.20;;;2.77;;
22435;SDS011;11385;50.822;4.324;2023-02-01T12:21:44;11.20;;;2.35;;
22435;SDS011;11385;50.822;4.324;2023-02-01T12:24:58;12.47;;;2.75;;
22435;SDS011;11385;50.822;4.324;2023-02-01T12:30:10;13.40;;;2.45;;
22435;SDS011;11385;50.822;4.324;2023-02-01T12:32:54;11.12;;;2.25;;
22435;SDS011;11385;50.822;4.324;2023-02-01T12:40:56;12.43;;;1.87;;
22435;SDS011;11385;50.822;4.324;2023-02-01T12:46:16;10.13;;;2.00;;
22435;SDS011;11385;50.822;4.324;2023-02-01T12:49:05;9.63;;;1.87;;
22435;SDS011;11385;50.822;4.324;2023-02-01T12:51:35;8.88;;;2.17;;
22435;SDS011;11385;50.822;4.324;2023-02-01T12:54:12;15.20;;;2.22;;
22435;SDS011;11385;50.822;4.324;2023-02-01T12:56:53;10.85;;;2.33;;
22435;SDS011;11385;50.822;4.324;2023-02-01T12:59:28;6.92;;;2.15;;
22435;SDS011;11385;50.822;4.324;2023-02-01T13:04:59;13.08;;;2.35;;
22435;SDS011;11385;50.822;4.324;2023-02-01T13:07:38;8.65;;;1.72;;
22435;SDS011;11385;50.822;4.324;2023-02-01T13:10:12;18.27;;;2.27;;
22435;SDS011;11385;50.822;4.324;2023-02-01T13:12:53;13.50;;;2.17;;
22435;SDS011;11385;50.822;4.324;2023-02-01T13:15:27;9.10;;;2.10;;
22435;SDS011;11385;50.822;4.324;2023-02-01T13:17:59;8.18;;;1.32;;
22435;SDS011;11385;50.822;4.324;2023-02-01T13:20:30;9.27;;;1.67;;
22435;SDS011;11385;50.822;4.324;2023-02-01T13:25:32;9.43;;;1.82;;
22435;SDS011;11385;50.822;4.324;2023-02-01T13:28:03;8.88;;;1.60;;
22435;SDS011;11385;50.822;4.324;2023-02-01T13:30:54;9.73;;;1.77;;
22435;SDS011;11385;50.822;4.324;2023-02-01T13:33:33;7.80;;;1.75;;
22435;SDS011;11385;50.822;4.324;2023-02-01T13:36:05;13.03;;;2.10;;
22435;SDS011;11385;50.822;4.324;2023-02-01T13:39:57;12.50;;;2.15;;
22435;SDS011;11385;50.822;4.324;2023-02-01T13:41:52;12.15;;;1.98;;
22435;SDS011;11385;50.822;4.324;2023-02-01T13:44:26;7.45;;;1.80;;
22435;SDS011;11385;50.822;4.324;2023-02-01T13:46:59;7.78;;;1.72;;
22435;SDS011;11385;50.822;4.324;2023-02-01T13:49:31;7.10;;;1.33;;
22435;SDS011;11385;50.822;4.324;2023-02-01T13:51:59;13.43;;;2.50;;
22435;SDS011;11385;50.822;4.324;2023-02-01T13:54:29;9.00;;;1.65;;
22435;SDS011;11385;50.822;4.324;2023-02-01T13:57:01;6.87;;;1.80;;
22435;SDS011;11385;50.822;4.324;2023-02-01T14:04:46;8.63;;;1.98;;
22435;SDS011;11385;50.822;4.324;2023-02-01T14:07:18;6.28;;;1.62;;
22435;SDS011;11385;50.822;4.324;2023-02-01T14:09:46;8.10;;;2.10;;
22435;SDS011;11385;50.822;4.324;2023-02-01T14:12:46;11.25;;;2.35;;
22435;SDS011;11385;50.822;4.324;2023-02-01T14:15:19;11.10;;;2.02;;
22435;SDS011;11385;50.822;4.324;2023-02-01T14:17:49;10.15;;;2.50;;
22435;SDS011;11385;50.822;4.324;2023-02-01T14:23:00;10.25;;;1.77;;
22435;SDS011;11385;50.822;4.324;2023-02-01T14:25:32;11.30;;;2.60;;
22435;SDS011;11385;50.822;4.324;2023-02-01T14:28:00;10.38;;;2.50;;
22435;SDS011;11385;50.822;4.324;2023-02-01T14:30:27;14.13;;;2.92;;
22435;SDS011;11385;50.822;4.324;2023-02-01T14:32:54;12.43;;;2.45;;
22435;SDS011;11385;50.822;4.324;2023-02-01T14:35:24;8.03;;;1.60;;
22435;SDS011;11385;50.822;4.324;2023-02-01T14:37:52;8.73;;;1.57;;
22435;SDS011;11385;50.822;4.324;2023-02-01T14:40:24;9.10;;;1.60;;
22435;SDS011;11385;50.822;4.324;2023-02-01T14:42:53;10.50;;;2.12;;
22435;SDS011;11385;50.822;4.324;2023-02-01T14:48:41;13.75;;;2.62;;
22435;SDS011;11385;50.822;4.324;2023-02-01T14:51:06;10.60;;;2.15;;
22435;SDS011;11385;50.822;4.324;2023-02-01T14:53:33;12.23;;;2.08;;
22435;SDS011;11385;50.822;4.324;2023-02-01T14:56:08;9.40;;;2.35;;
22435;SDS011;11385;50.822;4.324;2023-02-01T14:58:41;13.40;;;2.98;;
22435;SDS011;11385;50.822;4.324;2023-02-01T15:01:30;10.00;;;1.80;;
22435;SDS011;11385;50.822;4.324;2023-02-01T15:04:04;9.53;;;2.12;;
22435;SDS011;11385;50.822;4.324;2023-02-01T15:06:47;10.93;;;1.67;;
22435;SDS011;11385;50.822;4.324;2023-02-01T15:09:25;15.13;;;2.62;;
22435;SDS011;11385;50.822;4.324;2023-02-01T15:11:59;9.38;;;2.47;;
22435;SDS011;11385;50.822;4.324;2023-02-01T15:14:34;12.65;;;2.22;;
22435;SDS011;11385;50.822;4.324;2023-02-01T15:17:15;8.45;;;1.92;;
22435;SDS011;11385;50.822;4.324;2023-02-01T15:19:38;9.55;;;2.20;;
22435;SDS011;11385;50.822;4.324;2023-02-01T15:22:04;11.93;;;2.37;;
22435;SDS011;11385;50.822;4.324;2023-02-01T15:24:31;12.68;;;2.37;;
22435;SDS011;11385;50.822;4.324;2023-02-01T15:27:02;12.65;;;2.37;;
22435;SDS011;11385;50.822;4.324;2023-02-01T15:29:30;7.67;;;2.10;;
22435;SDS011;11385;50.822;4.324;2023-02-01T15:32:00;11.00;;;2.40;;
22435;SDS011;11385;50.822;4.324;2023-02-01T15:37:05;13.32;;;2.67;;
22435;SDS011;11385;50.822;4.324;2023-02-01T15:39:31;15.28;;;2.67;;
22435;SDS011;11385;50.822;4.324;2023-02-01T15:42:08;13.20;;;2.42;;
22435;SDS011;11385;50.822;4.324;2023-02-01T15:44:40;17.23;;;2.58;;
22435;SDS011;11385;50.822;4.324;2023-02-01T15:47:14;14.07;;;2.12;;